createdAt,value
2023-05-09T00:00:56.873Z,53.82
2023-05-09T00:03:23.212Z,53.94
2023-05-09T00:05:49.566Z,54.67
2023-05-09T00:08:15.903Z,54.16
2023-05-09T00:10:42.854Z,55.02
2023-05-09T00:13:09.298Z,55.92
2023-05-09T00:15:35.738Z,54.91
2023-05-09T00:18:02.130Z,55.25
2023-05-09T00:20:28.446Z,54.95
2023-05-09T00:22:55.253Z,54.33
2023-05-09T00:25:21.564Z,53.83
2023-05-09T00:27:47.874Z,53.53
2023-05-09T00:30:14.192Z,53.01
2023-05-09T00:32:41.385Z,53.45
2023-05-09T00:35:08.449Z,54.18
2023-05-09T00:37:34.734Z,55.03
2023-05-09T00:40:01.074Z,54.95
2023-05-09T00:42:27.389Z,54.48
2023-05-09T00:44:53.695Z,54.79
2023-05-09T00:47:20.675Z,54.74
2023-05-09T00:49:46.961Z,55.03
2023-05-09T00:52:13.252Z,54.67
2023-05-09T00:54:39.633Z,54.98
2023-05-09T00:57:05.990Z,54.63
2023-05-09T00:59:32.298Z,55.09
2023-05-09T01:01:58.613Z,55.08
2023-05-09T01:04:24.948Z,55.88
2023-05-09T01:06:57.404Z,55.52
2023-05-09T01:09:39.125Z,56.07
2023-05-09T01:12:08.156Z,56.24
2023-05-09T01:14:44.253Z,56.91
2023-05-09T01:17:12.168Z,56.48
2023-05-09T01:19:47.573Z,55.86
2023-05-09T01:22:14.079Z,55.39
2023-05-09T01:25:05.108Z,54.87
2023-05-09T01:27:33.294Z,55.21
2023-05-09T01:29:59.734Z,54.54
2023-05-09T01:32:27.137Z,54.76
2023-05-09T01:34:54.507Z,53.89
2023-05-09T01:37:22.353Z,54.29
2023-05-09T01:39:51.678Z,54.32
2023-05-09T01:42:18.699Z,53.79
2023-05-09T01:44:44.975Z,53.88
2023-05-09T01:47:11.250Z,54.00
2023-05-09T01:49:37.735Z,54.40
2023-05-09T01:52:04.770Z,53.88
2023-05-09T01:54:31.080Z,54.22
2023-05-09T01:56:57.385Z,55.20
2023-05-09T01:59:23.667Z,55.85
2023-05-09T02:01:49.960Z,56.06
2023-05-09T02:04:16.277Z,57.07
2023-05-09T02:06:43.445Z,56.53
2023-05-09T02:09:10.039Z,56.80
2023-05-09T02:11:36.331Z,56.60
2023-05-09T02:14:02.707Z,56.67
2023-05-09T02:16:29.964Z,56.69
2023-05-09T02:18:56.294Z,56.98
2023-05-09T02:21:22.584Z,57.37
2023-05-09T02:23:48.861Z,57.34
2023-05-09T02:26:15.172Z,57.73
2023-05-09T02:28:41.567Z,57.78
2023-05-09T02:31:07.847Z,58.18
2023-05-09T02:33:34.859Z,58.21
2023-05-09T02:36:01.652Z,58.43
2023-05-09T02:38:27.937Z,57.85
2023-05-09T02:40:54.225Z,57.39
2023-05-09T02:43:20.927Z,57.21
2023-05-09T02:45:47.296Z,56.91
2023-05-09T02:48:13.732Z,56.00
2023-05-09T02:50:42.793Z,55.79
2023-05-09T02:53:09.603Z,55.76
2023-05-09T02:55:35.957Z,56.34
2023-05-09T02:58:12.910Z,56.76
2023-05-09T03:00:40.839Z,56.59
2023-05-09T03:03:07.197Z,57.07
2023-05-09T03:05:33.526Z,57.22
2023-05-09T03:07:59.812Z,56.43
2023-05-09T03:10:26.111Z,56.57
2023-05-09T03:12:52.486Z,57.16
2023-05-09T03:15:18.809Z,57.32
2023-05-09T03:17:45.207Z,56.85
2023-05-09T03:20:11.560Z,57.23
2023-05-09T03:22:37.859Z,57.95
2023-05-09T03:25:04.287Z,58.45
2023-05-09T03:27:30.613Z,58.51
2023-05-09T03:29:56.954Z,58.70
2023-05-09T03:32:23.355Z,58.75
2023-05-09T03:34:49.655Z,58.26
2023-05-09T03:37:16.012Z,58.08
2023-05-09T03:39:42.328Z,57.95
2023-05-09T03:42:08.602Z,58.14
2023-05-09T03:44:34.890Z,57.50
2023-05-09T03:47:01.222Z,57.24
2023-05-09T03:49:27.787Z,57.50
2023-05-09T03:51:54.127Z,56.89
2023-05-09T03:54:20.613Z,55.98
2023-05-09T03:56:46.924Z,55.48
2023-05-09T03:59:13.363Z,56.69
2023-05-09T04:01:40.305Z,56.97
2023-05-09T04:04:06.766Z,57.42
2023-05-09T04:06:33.498Z,57.38
2023-05-09T04:08:59.789Z,57.90
2023-05-09T04:11:26.908Z,58.14
2023-05-09T04:13:54.050Z,58.37
2023-05-09T04:16:20.440Z,58.64
2023-05-09T04:18:46.823Z,58.89
2023-05-09T04:21:13.109Z,58.56
2023-05-09T04:23:39.406Z,57.95
2023-05-09T04:26:06.161Z,57.26
2023-05-09T04:28:32.504Z,56.63
2023-05-09T04:30:58.861Z,56.72
2023-05-09T04:33:25.219Z,55.91
2023-05-09T04:35:51.736Z,55.29
2023-05-09T04:38:18.031Z,55.70
2023-05-09T04:40:44.325Z,56.05
2023-05-09T04:43:10.622Z,56.31
2023-05-09T04:45:36.970Z,56.57
2023-05-09T04:48:03.999Z,56.13
2023-05-09T04:50:30.403Z,56.93
2023-05-09T04:52:56.685Z,56.59
2023-05-09T04:55:23.034Z,57.15
2023-05-09T04:57:49.336Z,57.00
2023-05-09T05:00:17.600Z,56.19
2023-05-09T05:02:43.937Z,56.27
2023-05-09T05:05:12.448Z,55.88
2023-05-09T05:07:39.104Z,55.53
2023-05-09T05:10:06.382Z,55.60
2023-05-09T05:12:32.658Z,55.15
2023-05-09T05:14:58.965Z,54.97
2023-05-09T05:17:25.642Z,55.11
2023-05-09T05:19:51.955Z,55.14
2023-05-09T05:22:18.289Z,55.97
2023-05-09T05:24:44.574Z,56.63
2023-05-09T05:27:10.887Z,56.38
2023-05-09T05:29:37.185Z,56.63
2023-05-09T05:32:03.664Z,56.30
2023-05-09T05:34:30.002Z,55.77
2023-05-09T05:36:56.384Z,55.04
2023-05-09T05:39:22.796Z,55.51
2023-05-09T05:41:49.088Z,55.72
2023-05-09T05:44:15.401Z,55.21
2023-05-09T05:46:41.691Z,54.08
2023-05-09T05:49:07.987Z,54.13
2023-05-09T05:51:34.310Z,54.99
2023-05-09T05:54:00.683Z,56.66
2023-05-09T05:56:26.997Z,55.49
2023-05-09T05:58:53.943Z,55.80
2023-05-09T06:01:20.338Z,56.08
2023-05-09T06:03:46.786Z,55.61
2023-05-09T06:06:13.238Z,54.95
2023-05-09T06:08:39.534Z,53.81
2023-05-09T06:11:05.924Z,54.42
2023-05-09T06:13:32.275Z,53.66
2023-05-09T06:16:07.861Z,51.62
2023-05-09T06:18:41.855Z,51.24
2023-05-09T06:21:08.137Z,49.79
2023-05-09T06:23:37.020Z,49.78
2023-05-09T06:26:04.315Z,49.18
2023-05-09T06:28:30.674Z,49.91
2023-05-09T06:30:57.071Z,50.95
2023-05-09T06:33:23.427Z,51.45
2023-05-09T06:35:49.735Z,52.85
2023-05-09T06:38:16.016Z,54.15
2023-05-09T06:40:42.409Z,53.34
2023-05-09T06:43:08.692Z,54.15
2023-05-09T06:45:35.210Z,54.41
2023-05-09T06:48:01.693Z,52.14
2023-05-09T06:50:28.023Z,53.18
2023-05-09T06:52:54.305Z,53.61
2023-05-09T06:55:20.628Z,53.22
2023-05-09T06:57:46.920Z,54.13
2023-05-09T07:00:13.679Z,54.21
2023-05-09T07:02:41.983Z,55.49
2023-05-09T07:05:09.696Z,55.57
2023-05-09T07:07:36.297Z,56.78
2023-05-09T07:10:11.202Z,58.59
2023-05-09T07:12:38.533Z,58.95
2023-05-09T07:15:06.253Z,60.03
2023-05-09T07:17:32.556Z,58.03
2023-05-09T07:19:58.938Z,59.79
2023-05-09T07:22:25.442Z,57.83
2023-05-09T07:24:51.841Z,57.38
2023-05-09T07:27:18.128Z,57.01
2023-05-09T07:29:44.401Z,56.90
2023-05-09T07:32:10.996Z,56.83
2023-05-09T07:34:37.382Z,57.48
2023-05-09T07:37:03.760Z,58.30
2023-05-09T07:39:30.258Z,56.81
2023-05-09T07:41:56.554Z,58.19
2023-05-09T07:44:23.521Z,55.90
2023-05-09T07:46:49.876Z,57.61
2023-05-09T07:49:16.248Z,57.69
2023-05-09T07:51:42.570Z,56.08
2023-05-09T07:54:10.047Z,56.88
2023-05-09T07:56:36.469Z,57.05
2023-05-09T07:59:03.314Z,58.61
2023-05-09T08:01:29.622Z,58.80
2023-05-09T08:03:56.152Z,56.28
2023-05-09T08:06:22.561Z,55.66
2023-05-09T08:08:49.243Z,55.31
2023-05-09T08:11:15.663Z,54.92
2023-05-09T08:13:41.936Z,54.36
2023-05-09T08:16:08.347Z,54.64
2023-05-09T08:18:34.662Z,54.20
2023-05-09T08:21:01.094Z,55.61
2023-05-09T08:23:27.899Z,57.04
2023-05-09T08:25:54.543Z,56.78
2023-05-09T08:28:21.955Z,57.74
2023-05-09T08:30:48.304Z,57.20
2023-05-09T08:33:14.633Z,56.08
2023-05-09T08:35:40.940Z,56.71
2023-05-09T08:38:07.293Z,56.36
2023-05-09T08:40:37.698Z,55.88
2023-05-09T08:43:07.195Z,57.29
2023-05-09T08:45:34.830Z,56.58
2023-05-09T08:48:02.838Z,54.05
2023-05-09T08:50:29.199Z,53.47
2023-05-09T08:52:55.507Z,52.04
2023-05-09T08:55:21.791Z,55.89
2023-05-09T08:57:48.071Z,58.78
2023-05-09T09:00:15.876Z,59.81
2023-05-09T09:02:43.610Z,55.56
2023-05-09T09:05:19.677Z,56.22
2023-05-09T09:07:55.251Z,57.06
2023-05-09T09:10:25.556Z,53.93
2023-05-09T09:12:52.293Z,53.64
2023-05-09T09:15:18.575Z,55.73
2023-05-09T09:17:44.900Z,55.58
2023-05-09T09:20:12.209Z,55.70
2023-05-09T09:22:38.586Z,53.34
2023-05-09T09:25:05.061Z,52.16
2023-05-09T09:27:31.740Z,52.52
2023-05-09T09:30:10.991Z,50.37
2023-05-09T09:32:37.732Z,50.03
2023-05-09T09:35:07.546Z,49.04
2023-05-09T09:37:34.717Z,48.14
2023-05-09T09:40:01.116Z,48.96
2023-05-09T09:42:27.397Z,47.43
2023-05-09T09:44:57.215Z,47.68
2023-05-09T09:47:32.622Z,48.26
2023-05-09T09:49:58.971Z,48.69
2023-05-09T09:52:25.244Z,46.35
2023-05-09T09:54:51.528Z,48.38
2023-05-09T09:57:33.403Z,47.51
2023-05-09T09:59:59.689Z,45.38
2023-05-09T10:02:26.711Z,46.52
2023-05-09T10:04:53.038Z,50.78
2023-05-09T10:07:20.587Z,45.92
2023-05-09T10:09:49.116Z,44.01
2023-05-09T10:12:19.482Z,42.88
2023-05-09T10:14:45.780Z,41.83
2023-05-09T10:17:13.479Z,45.72
2023-05-09T10:19:41.459Z,40.99
2023-05-09T10:22:10.905Z,42.01
2023-05-09T10:24:40.098Z,43.72
2023-05-09T10:27:06.881Z,46.60
2023-05-09T10:29:34.651Z,45.63
2023-05-09T10:32:02.569Z,44.14
2023-05-09T10:34:29.098Z,42.78
2023-05-09T10:36:55.566Z,41.26
2023-05-09T10:39:22.021Z,40.29
2023-05-09T10:41:49.793Z,43.91
2023-05-09T10:44:16.539Z,46.43
2023-05-09T10:46:43.015Z,47.24
2023-05-09T10:49:09.779Z,45.69
2023-05-09T10:51:36.158Z,45.69
2023-05-09T10:54:02.443Z,45.27
2023-05-09T10:56:34.340Z,42.06
2023-05-09T10:59:00.760Z,40.54
2023-05-09T11:01:31.486Z,42.11
2023-05-09T11:03:58.512Z,41.85
2023-05-09T11:06:43.892Z,38.93
2023-05-09T11:09:28.853Z,39.60
2023-05-09T11:12:07.172Z,38.55
2023-05-09T11:14:40.745Z,39.69
2023-05-09T11:17:22.539Z,40.23
2023-05-09T11:19:51.611Z,39.23
2023-05-09T11:22:20.859Z,37.19
2023-05-09T11:24:50.795Z,39.90
2023-05-09T11:27:20.576Z,41.06
2023-05-09T11:29:50.950Z,41.73
2023-05-09T11:32:17.342Z,42.18
2023-05-09T11:34:44.014Z,42.20
2023-05-09T11:37:11.109Z,42.52
2023-05-09T11:39:54.837Z,42.22
2023-05-09T11:42:21.233Z,42.90
2023-05-09T11:44:48.793Z,41.83
2023-05-09T11:47:15.500Z,40.10
2023-05-09T11:49:44.660Z,40.46
2023-05-09T11:52:11.146Z,42.61
2023-05-09T11:54:40.330Z,41.70
2023-05-09T11:57:06.807Z,40.90
2023-05-09T11:59:33.461Z,40.27
2023-05-09T12:02:05.907Z,41.72
2023-05-09T12:04:32.301Z,42.36
2023-05-09T12:06:59.291Z,44.45
2023-05-09T12:09:35.182Z,44.90
2023-05-09T12:12:01.502Z,42.46
2023-05-09T12:14:28.545Z,39.36
2023-05-09T12:16:54.842Z,37.45
2023-05-09T12:19:21.228Z,41.65
2023-05-09T12:21:47.511Z,41.73
2023-05-09T12:24:13.813Z,41.44
2023-05-09T12:26:40.099Z,43.55
2023-05-09T12:29:06.392Z,46.47
2023-05-09T12:31:32.934Z,48.01
2023-05-09T12:33:59.263Z,48.40
2023-05-09T12:36:26.280Z,46.85
2023-05-09T12:38:55.477Z,44.65
2023-05-09T12:43:56.521Z,48.07
2023-05-09T12:46:23.112Z,47.24
2023-05-09T12:48:49.570Z,47.50
2023-05-09T12:51:20.139Z,48.04
2023-05-09T12:53:46.473Z,47.54
2023-05-09T12:56:12.769Z,47.19
2023-05-09T12:58:39.480Z,46.96
2023-05-09T13:01:06.029Z,46.70
2023-05-09T13:03:37.745Z,48.38
2023-05-09T13:06:05.408Z,49.01
2023-05-09T13:08:31.691Z,49.04
2023-05-09T13:11:12.011Z,49.75
2023-05-09T13:13:42.426Z,52.97
2023-05-09T13:16:10.719Z,53.81
2023-05-09T13:18:38.403Z,54.16
2023-05-09T13:21:04.694Z,51.22
2023-05-09T13:23:30.960Z,51.80
2023-05-09T13:25:57.248Z,50.60
2023-05-09T13:28:23.537Z,48.95
2023-05-09T13:30:49.857Z,49.86
2023-05-09T13:33:25.334Z,53.58
2023-05-09T13:35:52.479Z,53.02
2023-05-09T13:38:18.811Z,53.43
2023-05-09T13:40:45.100Z,52.18
2023-05-09T13:43:11.475Z,53.00
2023-05-09T13:45:37.808Z,49.52
2023-05-09T13:48:04.319Z,49.00
2023-05-09T13:50:30.636Z,50.37
2023-05-09T13:52:56.996Z,54.50
2023-05-09T13:55:24.222Z,55.28
2023-05-09T13:57:50.941Z,54.93
2023-05-09T14:00:18.061Z,55.13
2023-05-09T14:02:44.576Z,53.30
2023-05-09T14:05:10.880Z,52.95
2023-05-09T14:07:37.236Z,52.59
2023-05-09T14:12:33.974Z,50.09
2023-05-09T14:15:00.285Z,50.65
2023-05-09T14:17:26.782Z,56.12
2023-05-09T14:19:53.108Z,57.39
2023-05-09T14:22:19.495Z,56.17
2023-05-09T14:24:45.877Z,57.23
2023-05-09T14:27:12.182Z,57.42
2023-05-09T14:29:41.121Z,58.70
2023-05-09T14:32:08.029Z,58.50
2023-05-09T14:34:34.421Z,59.10
2023-05-09T14:37:00.719Z,58.62
2023-05-09T14:39:27.015Z,57.61
2023-05-09T14:41:53.306Z,56.66
2023-05-09T14:44:19.602Z,56.45
2023-05-09T14:46:45.935Z,55.10
2023-05-09T14:49:12.256Z,54.90
2023-05-09T14:51:38.630Z,54.05
2023-05-09T14:54:04.948Z,53.58
2023-05-09T14:56:31.255Z,50.29
2023-05-09T14:58:57.541Z,51.93
2023-05-09T15:01:24.137Z,54.37
2023-05-09T15:03:50.562Z,56.00
2023-05-09T15:06:17.152Z,57.16
2023-05-09T15:08:43.433Z,58.80
2023-05-09T15:11:09.729Z,60.84
2023-05-09T15:13:36.227Z,59.08
2023-05-09T15:16:02.682Z,58.12
2023-05-09T15:18:29.000Z,60.35
2023-05-09T15:20:55.700Z,57.84
2023-05-09T15:23:22.682Z,57.38
2023-05-09T15:25:49.110Z,58.82
2023-05-09T15:28:15.631Z,58.78
2023-05-09T15:30:42.129Z,56.33
2023-05-09T15:33:08.533Z,55.20
2023-05-09T15:35:34.853Z,55.64
2023-05-09T15:38:01.134Z,58.16
2023-05-09T15:40:27.940Z,58.39
2023-05-09T15:42:54.222Z,59.20
2023-05-09T15:45:20.631Z,59.96
2023-05-09T15:47:47.167Z,58.17
2023-05-09T15:50:13.740Z,59.31
2023-05-09T15:52:40.227Z,59.26
2023-05-09T15:55:07.065Z,57.37
2023-05-09T15:57:33.482Z,56.89
2023-05-09T15:59:59.853Z,57.52
2023-05-09T16:02:26.346Z,56.45
2023-05-09T16:04:52.844Z,56.42
2023-05-09T16:07:20.380Z,55.20
2023-05-09T16:09:47.226Z,55.95
2023-05-09T16:12:13.741Z,55.91
2023-05-09T16:14:40.112Z,55.55
2023-05-09T16:17:06.445Z,56.72
2023-05-09T16:19:35.031Z,57.09
2023-05-09T16:22:02.182Z,58.56
2023-05-09T16:24:28.465Z,60.14
2023-05-09T16:26:54.743Z,61.33
2023-05-09T16:29:22.306Z,62.36
2023-05-09T16:31:48.664Z,61.35
2023-05-09T16:34:14.969Z,61.01
2023-05-09T16:36:41.351Z,61.49
2023-05-09T16:39:07.642Z,58.34
2023-05-09T16:41:33.942Z,58.27
2023-05-09T16:44:00.288Z,58.28
2023-05-09T16:46:26.723Z,59.18
2023-05-09T16:48:53.077Z,58.56
2023-05-09T16:51:19.405Z,59.53
2023-05-09T16:53:45.694Z,60.19
2023-05-09T16:56:12.231Z,59.82
2023-05-09T16:58:38.741Z,57.94
2023-05-09T17:01:05.484Z,59.32
2023-05-09T17:03:31.863Z,59.92
2023-05-09T17:05:58.161Z,60.03
2023-05-09T17:08:24.456Z,58.24
2023-05-09T17:10:50.802Z,57.94
2023-05-09T17:13:17.317Z,58.46
2023-05-09T17:15:44.260Z,59.43
2023-05-09T17:18:10.801Z,61.51
2023-05-09T17:20:37.740Z,60.60
2023-05-09T17:23:04.053Z,60.13
2023-05-09T17:25:30.571Z,60.84
2023-05-09T17:27:56.925Z,59.30
2023-05-09T17:30:23.618Z,58.32
2023-05-09T17:32:50.145Z,61.16
2023-05-09T17:35:19.244Z,60.98
2023-05-09T17:37:45.558Z,61.69
2023-05-09T17:40:11.945Z,62.64
2023-05-09T17:42:38.562Z,62.41
2023-05-09T17:45:05.072Z,62.73
2023-05-09T17:47:31.527Z,63.81
2023-05-09T17:49:57.870Z,64.12
2023-05-09T17:52:24.180Z,64.87
2023-05-09T17:54:50.586Z,64.94
2023-05-09T17:57:16.897Z,64.33
2023-05-09T17:59:43.241Z,65.20
2023-05-09T18:02:09.527Z,66.04
2023-05-09T18:04:36.015Z,66.83
2023-05-09T18:07:02.584Z,67.59
2023-05-09T18:09:28.898Z,67.78
2023-05-09T18:11:55.220Z,65.95
2023-05-09T18:14:21.541Z,63.92
2023-05-09T18:16:47.855Z,63.81
2023-05-09T18:19:14.112Z,63.48
2023-05-09T18:21:40.426Z,63.37
2023-05-09T18:24:08.990Z,62.84
2023-05-09T18:26:35.292Z,61.81
2023-05-09T18:29:01.625Z,60.82
2023-05-09T18:31:27.930Z,59.33
2023-05-09T18:33:54.295Z,59.87
2023-05-09T18:36:20.568Z,62.12
2023-05-09T18:38:48.141Z,61.95
2023-05-09T18:41:15.626Z,61.04
2023-05-09T18:43:45.803Z,62.60
2023-05-09T18:46:16.974Z,62.19
2023-05-09T18:48:44.174Z,61.82
2023-05-09T18:51:10.590Z,61.20
2023-05-09T18:53:37.791Z,61.34
2023-05-09T18:56:04.475Z,60.88
2023-05-09T18:58:30.963Z,64.21
2023-05-09T19:00:57.370Z,65.88
2023-05-09T19:03:25.101Z,66.41
2023-05-09T19:05:51.378Z,66.14
2023-05-09T19:08:17.691Z,68.28
2023-05-09T19:10:44.580Z,67.14
2023-05-09T19:13:11.550Z,64.02
2023-05-09T19:15:38.658Z,63.91
2023-05-09T19:18:05.005Z,64.17
2023-05-09T19:20:31.488Z,65.37
2023-05-09T19:22:57.938Z,66.79
2023-05-09T19:25:24.644Z,66.01
2023-05-09T19:27:52.539Z,65.93
2023-05-09T19:30:20.255Z,66.60
2023-05-09T19:32:46.611Z,64.94
2023-05-09T19:35:12.963Z,63.21
2023-05-09T19:37:39.276Z,62.71
2023-05-09T19:40:06.243Z,62.48
2023-05-09T19:42:33.114Z,61.57
2023-05-09T19:44:59.565Z,60.53
2023-05-09T19:47:26.005Z,60.39
2023-05-09T19:49:53.453Z,59.09
2023-05-09T19:52:19.827Z,59.68
2023-05-09T19:54:46.129Z,59.11
2023-05-09T19:57:13.153Z,59.23
2023-05-09T19:59:39.431Z,59.01
2023-05-09T20:02:05.798Z,58.67
2023-05-09T20:04:33.106Z,58.50
2023-05-09T20:06:59.387Z,58.25
2023-05-09T20:09:25.726Z,58.24
2023-05-09T20:11:52.001Z,58.46
2023-05-09T20:14:18.707Z,58.69
2023-05-09T20:16:45.042Z,58.43
2023-05-09T20:19:14.465Z,58.11
2023-05-09T20:21:40.777Z,58.07
2023-05-09T20:24:07.470Z,58.08
2023-05-09T20:26:33.761Z,58.43
2023-05-09T20:29:01.469Z,57.95
2023-05-09T20:31:28.498Z,57.76
2023-05-09T20:33:55.485Z,58.67
2023-05-09T20:36:21.796Z,59.68
2023-05-09T20:38:48.111Z,59.97
2023-05-09T20:41:14.405Z,59.31
2023-05-09T20:43:40.691Z,58.39
2023-05-09T20:46:07.327Z,58.36
2023-05-09T20:48:33.648Z,58.51
2023-05-09T20:50:59.910Z,57.76
2023-05-09T20:53:27.553Z,57.73
2023-05-09T20:55:53.920Z,58.01
2023-05-09T20:58:20.329Z,57.41
2023-05-09T21:00:47.017Z,58.21
2023-05-09T21:03:13.611Z,57.88
2023-05-09T21:05:40.356Z,57.39
2023-05-09T21:08:06.637Z,56.93
2023-05-09T21:10:32.905Z,56.68
2023-05-09T21:12:59.260Z,58.55
2023-05-09T21:15:25.589Z,58.82
2023-05-09T21:17:51.918Z,58.76
2023-05-09T21:20:18.477Z,59.02
2023-05-09T21:22:44.916Z,58.69
2023-05-09T21:25:11.281Z,58.62
2023-05-09T21:27:37.579Z,59.15
2023-05-09T21:30:04.247Z,58.15
2023-05-09T21:32:30.579Z,59.08
2023-05-09T21:34:56.975Z,59.20
2023-05-09T21:37:23.260Z,58.69
2023-05-09T21:39:49.560Z,58.35
2023-05-09T21:42:15.922Z,57.51
2023-05-09T21:44:42.208Z,56.57
2023-05-09T21:47:08.673Z,56.41
2023-05-09T21:49:35.114Z,56.87
2023-05-09T21:52:01.413Z,56.69
2023-05-09T21:54:27.721Z,57.44
2023-05-09T21:56:54.045Z,56.92
2023-05-09T21:59:22.115Z,58.34
2023-05-09T22:01:48.707Z,57.63
2023-05-09T22:04:15.256Z,57.16
2023-05-09T22:06:42.485Z,56.99
2023-05-09T22:09:09.022Z,56.93
2023-05-09T22:11:35.338Z,56.89
2023-05-09T22:14:01.865Z,57.30
2023-05-09T22:16:28.646Z,57.12
2023-05-09T22:18:55.073Z,58.29
2023-05-09T22:21:21.359Z,59.34
2023-05-09T22:23:47.649Z,59.07
2023-05-09T22:26:13.919Z,59.25
2023-05-09T22:28:40.267Z,60.35
2023-05-09T22:31:06.786Z,59.28
2023-05-09T22:33:33.331Z,58.53
2023-05-09T22:35:59.610Z,58.97
2023-05-09T22:38:25.933Z,59.08
2023-05-09T22:40:52.244Z,58.52
2023-05-09T22:43:18.514Z,58.45
2023-05-09T22:45:44.936Z,58.21
2023-05-09T22:48:11.345Z,58.69
2023-05-09T22:50:37.679Z,58.60
2023-05-09T22:53:03.963Z,58.52
2023-05-09T22:55:30.350Z,59.11
2023-05-09T22:57:56.688Z,58.72
2023-05-09T23:00:22.979Z,57.55
2023-05-09T23:02:49.376Z,58.11
2023-05-09T23:05:15.786Z,58.29
2023-05-09T23:07:42.339Z,58.13
2023-05-09T23:10:08.608Z,56.85
2023-05-09T23:12:34.893Z,57.35
2023-05-09T23:15:01.233Z,57.47
2023-05-09T23:17:27.589Z,57.94
2023-05-09T23:19:53.968Z,57.91
2023-05-09T23:22:20.265Z,57.49
2023-05-09T23:24:46.564Z,59.86
2023-05-09T23:27:12.841Z,59.44
2023-05-09T23:29:39.111Z,59.70
2023-05-09T23:32:05.401Z,59.17
2023-05-09T23:34:31.778Z,58.76
2023-05-09T23:36:58.120Z,58.28
2023-05-09T23:39:24.425Z,58.02
2023-05-09T23:41:50.712Z,58.12
2023-05-09T23:44:17.058Z,59.09
2023-05-09T23:46:43.402Z,58.63
2023-05-09T23:49:09.690Z,57.91
2023-05-09T23:51:36.227Z,57.81
2023-05-09T23:54:02.504Z,57.81
2023-05-09T23:56:28.807Z,57.70
2023-05-09T23:58:55.545Z,58.79
